Time;durP1;ratioP1;P1;durP2;ratioP2;P2;SDS_P1;SDS_P2;PMS_P1;PMS_P2;Temp;Humidity;BMP_temperature;BMP_pressure;BME280_temperature;BME280_humidity;BME280_pressure;Samples;Min_cycle;Max_cycle;Signal;HPM_P1;HPM_P2
2021/08/02 00:00:53;;;;;;;4.65;3.13;;;16.60;92.20;;;;;;3541370;40;20034;-68
2021/08/02 00:04:01;;;;;;;3.80;3.10;;;16.60;92.10;;;;;;3541853;40;20027;-68
2021/08/02 00:06:34;;;;;;;4.50;3.30;;;16.50;92.20;;;;;;3541805;40;20060;-67
2021/08/02 00:09:06;;;;;;;4.82;3.53;;;16.50;92.10;;;;;;3540750;40;20046;-66
2021/08/02 00:11:39;;;;;;;4.40;3.10;;;16.50;92.20;;;;;;3540563;40;20035;-67
2021/08/02 00:14:07;;;;;;;3.72;3.42;;;16.50;92.20;;;;;;3541783;40;20058;-68
2021/08/02 00:16:35;;;;;;;3.55;3.08;;;16.50;92.10;;;;;;3541701;40;20144;-68
2021/08/02 00:19:01;;;;;;;5.45;3.30;;;16.50;92.00;;;;;;3541924;40;20034;-68
2021/08/02 00:21:27;;;;;;;3.72;3.33;;;16.50;92.10;;;;;;3541573;40;20082;-68
2021/08/02 00:23:52;;;;;;;5.65;3.30;;;16.50;92.10;;;;;;3541088;40;20042;-68
2021/08/02 00:26:19;;;;;;;3.72;3.42;;;16.50;92.10;;;;;;3541929;40;20120;-68
2021/08/02 00:28:45;;;;;;;3.80;3.40;;;16.50;92.10;;;;;;3539629;40;20023;-69
2021/08/02 00:31:12;;;;;;;3.40;3.10;;;16.50;92.10;;;;;;3540394;40;20034;-68
2021/08/02 00:33:38;;;;;;;3.88;3.47;;;16.50;92.10;;;;;;3540490;40;20034;-67
2021/08/02 00:36:18;;;;;;;3.40;3.10;;;16.50;92.10;;;;;;3541978;40;20113;-68
2021/08/02 00:39:01;;;;;;;4.32;3.17;;;16.60;92.10;;;;;;3541510;40;20140;-68
2021/08/02 00:41:51;;;;;;;3.67;3.25;;;16.60;92.10;;;;;;3540658;40;20046;-68
2021/08/02 00:44:29;;;;;;;3.78;3.40;;;16.60;92.20;;;;;;3542021;40;20078;-68
2021/08/02 00:47:02;;;;;;;4.57;4.10;;;16.70;92.30;;;;;;3545141;40;20034;-67
2021/08/02 00:49:28;;;;;;;5.20;4.38;;;16.70;92.40;;;;;;3541979;40;20188;-68
2021/08/02 00:51:56;;;;;;;4.65;3.92;;;16.80;92.30;;;;;;3541706;40;20027;-68
2021/08/02 00:54:25;;;;;;;4.13;3.72;;;16.80;92.20;;;;;;3542207;40;20050;-68
2021/08/02 00:56:57;;;;;;;5.40;3.83;;;16.80;92.20;;;;;;3541835;40;20042;-68
2021/08/02 00:59:27;;;;;;;4.22;3.78;;;16.80;92.10;;;;;;3542442;40;20054;-68
2021/08/02 01:01:54;;;;;;;5.30;3.83;;;16.90;92.10;;;;;;3541990;40;20053;-67
2021/08/02 01:04:23;;;;;;;5.07;3.67;;;16.90;92.10;;;;;;3542341;40;20027;-68
2021/08/02 01:06:51;;;;;;;4.22;3.67;;;16.90;92.00;;;;;;3548963;40;20065;-68
2021/08/02 01:09:19;;;;;;;4.20;3.75;;;16.90;92.00;;;;;;3541810;40;20158;-68
2021/08/02 01:11:49;;;;;;;4.05;3.65;;;17.00;91.90;;;;;;3541505;40;20654;-68
2021/08/02 01:14:20;;;;;;;6.72;3.50;;;17.00;91.90;;;;;;3541665;40;20038;-67
2021/08/02 01:16:47;;;;;;;4.13;3.72;;;17.00;91.90;;;;;;3541891;40;20101;-68
2021/08/02 01:19:15;;;;;;;4.35;3.75;;;17.00;91.80;;;;;;3541564;40;20044;-69
2021/08/02 01:21:46;;;;;;;3.72;3.42;;;17.00;91.90;;;;;;3540685;40;20051;-68
2021/08/02 01:24:13;;;;;;;4.20;3.80;;;17.00;91.90;;;;;;3548627;40;20049;-68
2021/08/02 01:26:42;;;;;;;4.05;3.38;;;17.00;91.90;;;;;;3541937;40;20305;-68
2021/08/02 01:29:48;;;;;;;3.80;3.50;;;17.00;91.90;;;;;;3541635;40;20113;-68
2021/08/02 01:32:18;;;;;;;3.75;3.40;;;17.00;92.00;;;;;;3541159;40;20038;-67
2021/08/02 01:34:46;;;;;;;6.82;4.20;;;17.00;92.10;;;;;;3548319;40;20062;-67
2021/08/02 01:37:13;;;;;;;4.97;3.53;;;17.00;92.10;;;;;;3541568;40;20398;-68
2021/08/02 01:39:45;;;;;;;5.82;4.07;;;17.00;92.10;;;;;;3541166;40;20039;-68
2021/08/02 01:42:11;;;;;;;3.92;3.53;;;17.00;92.20;;;;;;3540353;40;20144;-68
2021/08/02 01:44:37;;;;;;;4.65;3.67;;;17.10;92.10;;;;;;3548555;40;20267;-68
2021/08/02 01:47:15;;;;;;;4.93;4.35;;;17.10;92.10;;;;;;3548094;40;20101;-68
2021/08/02 01:50:03;;;;;;;4.63;3.55;;;17.10;92.10;;;;;;3541124;40;20054;-68
2021/08/02 01:52:49;;;;;;;3.92;3.53;;;17.10;92.20;;;;;;3550003;40;20078;-67
2021/08/02 01:55:18;;;;;;;3.75;3.45;;;17.10;92.20;;;;;;3541911;40;20081;-67
2021/08/02 01:58:00;;;;;;;4.22;3.83;;;17.10;92.10;;;;;;3543000;40;20775;-69
2021/08/02 02:00:38;;;;;;;5.40;3.88;;;17.10;92.20;;;;;;3541565;40;20042;-67
2021/08/02 02:03:36;;;;;;;4.22;3.80;;;17.20;92.00;;;;;;3542879;40;20053;-68
2021/08/02 02:06:13;;;;;;;5.25;4.28;;;17.20;92.30;;;;;;3535043;40;20054;-67
2021/08/02 02:09:05;;;;;;;5.23;3.80;;;17.20;92.00;;;;;;3541521;40;20742;-70
2021/08/02 02:11:37;;;;;;;5.95;3.53;;;17.20;91.90;;;;;;3545992;40;20608;-68
2021/08/02 02:14:13;;;;;;;4.28;3.88;;;17.20;91.90;;;;;;3542964;40;20039;-68
2021/08/02 02:16:44;;;;;;;4.18;3.63;;;17.20;91.90;;;;;;3541572;40;20038;-68
2021/08/02 02:19:11;;;;;;;4.03;3.63;;;17.20;91.90;;;;;;3542747;40;20026;-67
2021/08/02 02:21:39;;;;;;;4.30;3.88;;;17.20;91.80;;;;;;3541127;40;20039;-68
2021/08/02 02:24:09;;;;;;;4.75;3.83;;;17.20;91.80;;;;;;3541539;40;20034;-68
2021/08/02 02:26:38;;;;;;;4.00;3.65;;;17.20;91.80;;;;;;3542216;40;20045;-68
2021/08/02 02:29:11;;;;;;;5.43;3.85;;;17.20;91.80;;;;;;3541281;40;20027;-68
2021/08/02 02:31:40;;;;;;;4.07;3.67;;;17.30;91.80;;;;;;3540808;40;20041;-66
2021/08/02 02:34:10;;;;;;;5.53;4.18;;;17.30;91.90;;;;;;3541933;40;20045;-68
2021/08/02 02:36:38;;;;;;;5.93;4.15;;;17.30;91.90;;;;;;3542126;40;20033;-67
2021/08/02 02:39:07;;;;;;;5.45;3.88;;;17.30;91.90;;;;;;3547910;40;20414;-68
2021/08/02 02:41:34;;;;;;;4.63;4.15;;;17.30;91.90;;;;;;3540560;40;20419;-68
2021/08/02 02:44:03;;;;;;;5.57;3.90;;;17.20;91.80;;;;;;3539396;40;20030;-67
2021/08/02 02:46:30;;;;;;;6.40;4.13;;;17.20;91.90;;;;;;3542378;40;20981;-67
2021/08/02 02:48:59;;;;;;;4.35;3.92;;;17.20;91.80;;;;;;3541824;40;20097;-68
2021/08/02 02:51:27;;;;;;;5.22;4.05;;;17.30;91.80;;;;;;3542095;40;20018;-67
2021/08/02 02:53:55;;;;;;;4.55;4.15;;;17.20;91.80;;;;;;3549087;40;20037;-68
2021/08/02 02:56:23;;;;;;;4.60;3.22;;;17.20;91.80;;;;;;3541520;40;20037;-68
2021/08/02 02:58:50;;;;;;;3.47;3.17;;;17.20;91.80;;;;;;3542723;40;20152;-68
2021/08/02 03:01:22;;;;;;;3.97;3.05;;;17.30;91.80;;;;;;3542523;40;20091;-67
2021/08/02 03:03:51;;;;;;;3.58;3.28;;;17.30;91.80;;;;;;3540379;40;20117;-68
2021/08/02 03:06:18;;;;;;;3.95;3.13;;;17.20;91.70;;;;;;3542412;40;20811;-67
2021/08/02 03:08:45;;;;;;;3.72;3.17;;;17.30;91.80;;;;;;3550244;40;20448;-68
2021/08/02 03:11:15;;;;;;;3.72;3.38;;;17.30;91.80;;;;;;3540977;40;20034;-68
2021/08/02 03:13:42;;;;;;;3.85;3.20;;;17.20;91.60;;;;;;3542699;40;20195;-68
2021/08/02 03:16:11;;;;;;;7.38;3.42;;;17.20;91.60;;;;;;3542235;40;20035;-67
2021/08/02 03:18:37;;;;;;;4.10;3.25;;;17.20;91.60;;;;;;3542656;40;20317;-68
2021/08/02 03:21:04;;;;;;;3.72;2.90;;;17.20;91.60;;;;;;3540737;40;20073;-67
2021/08/02 03:23:48;;;;;;;3.53;2.85;;;17.20;91.50;;;;;;3542732;40;20030;-68
2021/08/02 03:26:32;;;;;;;3.10;2.83;;;17.20;91.50;;;;;;3542699;40;20049;-68
2021/08/02 03:29:10;;;;;;;4.15;3.00;;;17.20;91.50;;;;;;3541132;40;20046;-68
2021/08/02 03:31:43;;;;;;;4.43;3.28;;;17.20;91.50;;;;;;3543369;40;20026;-68
2021/08/02 03:34:17;;;;;;;3.67;2.80;;;17.20;91.50;;;;;;3544553;40;20050;-68
2021/08/02 03:36:44;;;;;;;6.53;2.75;;;17.10;91.40;;;;;;3542536;40;20078;-68
2021/08/02 03:39:12;;;;;;;3.15;2.80;;;17.20;91.50;;;;;;3542232;40;20054;-68
2021/08/02 03:41:41;;;;;;;3.00;2.70;;;17.10;91.40;;;;;;3542271;40;20401;-67
2021/08/02 03:44:10;;;;;;;4.05;2.75;;;17.20;91.40;;;;;;3541600;40;20078;-68
2021/08/02 03:46:37;;;;;;;4.13;2.70;;;17.10;91.50;;;;;;3540359;40;20777;-67
2021/08/02 03:49:03;;;;;;;6.03;3.20;;;17.10;91.40;;;;;;3541408;40;20073;-68
2021/08/02 03:51:36;;;;;;;3.20;2.78;;;17.20;91.50;;;;;;3541159;40;20031;-67
2021/08/02 03:54:02;;;;;;;3.33;2.88;;;17.10;91.50;;;;;;3541972;40;20026;-68
2021/08/02 03:56:28;;;;;;;3.80;2.83;;;17.10;91.40;;;;;;3540620;40;20590;-68
2021/08/02 03:58:54;;;;;;;3.15;2.85;;;17.10;91.40;;;;;;3542531;40;20027;-69
2021/08/02 04:01:20;;;;;;;3.00;2.72;;;17.10;91.50;;;;;;3540702;40;20074;-68
2021/08/02 04:03:45;;;;;;;3.88;3.00;;;17.10;91.40;;;;;;3542637;40;20062;-67
2021/08/02 04:06:11;;;;;;;3.15;2.75;;;17.10;91.40;;;;;;3542747;40;20031;-68
2021/08/02 04:08:37;;;;;;;3.50;2.72;;;17.10;91.40;;;;;;3542684;40;20027;-67
2021/08/02 04:11:03;;;;;;;5.45;2.80;;;17.10;91.50;;;;;;3542342;40;20030;-67
2021/08/02 04:13:28;;;;;;;5.13;2.83;;;17.10;91.40;;;;;;3542325;40;20044;-68
2021/08/02 04:15:54;;;;;;;3.72;2.80;;;17.10;91.40;;;;;;3542186;40;20045;-68
2021/08/02 04:18:20;;;;;;;5.80;2.70;;;17.10;91.40;;;;;;3542458;40;20030;-68
2021/08/02 04:20:46;;;;;;;5.47;2.60;;;17.10;91.20;;;;;;3541829;40;20430;-68
2021/08/02 04:23:12;;;;;;;3.08;2.30;;;17.10;91.20;;;;;;3542358;40;20311;-67
2021/08/02 04:25:38;;;;;;;3.30;2.20;;;17.10;91.20;;;;;;3540598;40;20035;-68
2021/08/02 04:28:03;;;;;;;2.92;2.40;;;17.10;91.20;;;;;;3542245;40;20042;-67
2021/08/02 04:30:29;;;;;;;3.20;2.50;;;17.00;91.10;;;;;;3542048;40;20045;-66
2021/08/02 04:32:55;;;;;;;4.10;2.38;;;16.90;91.20;;;;;;3541669;40;20031;-67
2021/08/02 04:35:20;;;;;;;2.78;2.53;;;16.90;91.30;;;;;;3542170;40;20743;-69
2021/08/02 04:37:46;;;;;;;3.05;2.67;;;16.80;91.40;;;;;;3542118;40;20412;-67
2021/08/02 04:40:12;;;;;;;3.17;2.17;;;16.80;91.40;;;;;;3540091;40;20058;-67
2021/08/02 04:42:38;;;;;;;3.75;2.70;;;16.80;91.40;;;;;;3541983;40;20080;-66
2021/08/02 04:45:05;;;;;;;2.97;2.58;;;16.70;91.50;;;;;;3541294;40;20037;-68
2021/08/02 04:47:31;;;;;;;2.70;2.50;;;16.70;91.70;;;;;;3540652;40;20018;-67
2021/08/02 04:49:57;;;;;;;2.10;1.80;;;16.70;91.60;;;;;;3541323;40;20033;-68
2021/08/02 04:52:23;;;;;;;4.22;2.60;;;16.80;91.60;;;;;;3540568;40;20054;-67
2021/08/02 04:54:49;;;;;;;3.20;2.63;;;16.80;91.70;;;;;;3540600;40;20022;-68
2021/08/02 04:57:14;;;;;;;3.08;2.72;;;16.80;91.60;;;;;;3540133;40;20034;-68
2021/08/02 04:59:42;;;;;;;2.88;2.65;;;16.80;91.70;;;;;;3540077;40;20018;-69
2021/08/02 05:02:08;;;;;;;4.10;3.10;;;16.80;91.60;;;;;;3540053;40;20344;-67
2021/08/02 05:04:33;;;;;;;3.67;3.10;;;16.90;91.80;;;;;;3540448;40;20074;-68
2021/08/02 05:06:59;;;;;;;3.60;2.83;;;16.90;92.00;;;;;;3540233;40;20038;-67
2021/08/02 05:09:25;;;;;;;3.15;2.85;;;17.00;91.90;;;;;;3540232;40;20031;-68
2021/08/02 05:11:54;;;;;;;4.88;3.33;;;17.10;91.90;;;;;;3539838;40;20637;-68
2021/08/02 05:14:20;;;;;;;5.22;3.55;;;17.20;91.90;;;;;;3540071;40;20026;-66
2021/08/02 05:16:45;;;;;;;4.88;3.00;;;17.30;91.60;;;;;;3540329;40;20625;-67
2021/08/02 05:19:12;;;;;;;5.57;3.50;;;17.30;91.50;;;;;;3540378;40;20022;-68
2021/08/02 05:21:38;;;;;;;3.40;2.95;;;17.30;91.40;;;;;;3540305;40;20042;-68
2021/08/02 05:24:04;;;;;;;4.22;3.08;;;17.40;91.30;;;;;;3540832;40;20041;-68
2021/08/02 05:26:31;;;;;;;5.07;2.92;;;17.40;91.20;;;;;;3540782;40;20050;-68
2021/08/02 05:28:56;;;;;;;5.47;3.60;;;17.40;91.30;;;;;;3541744;40;20041;-68
2021/08/02 05:31:22;;;;;;;6.25;3.22;;;17.40;90.90;;;;;;3540699;40;20329;-68
2021/08/02 05:33:48;;;;;;;3.97;3.58;;;17.50;90.80;;;;;;3538600;40;20127;-68
2021/08/02 05:36:13;;;;;;;4.15;3.22;;;17.60;90.90;;;;;;3542328;40;20031;-69
2021/08/02 05:38:42;;;;;;;4.28;3.00;;;17.70;90.00;;;;;;3542398;40;20022;-67
2021/08/02 05:41:08;;;;;;;3.40;3.10;;;17.80;90.30;;;;;;3542043;40;20030;-67
2021/08/02 05:43:34;;;;;;;4.60;2.67;;;17.80;90.80;;;;;;3542720;40;20029;-68
2021/08/02 05:46:00;;;;;;;6.95;3.03;;;17.90;90.50;;;;;;3540781;40;20034;-67
2021/08/02 05:48:25;;;;;;;3.08;2.60;;;17.90;90.10;;;;;;3542304;40;20034;-68
2021/08/02 05:50:51;;;;;;;2.58;2.38;;;18.00;88.80;;;;;;3541611;40;20308;-68
2021/08/02 05:53:17;;;;;;;3.55;2.70;;;17.90;88.90;;;;;;3542222;40;20027;-68
2021/08/02 05:55:42;;;;;;;3.78;2.40;;;17.80;88.80;;;;;;3549634;40;20864;-68
2021/08/02 05:58:10;;;;;;;3.78;2.60;;;17.80;88.20;;;;;;3542412;40;20030;-68
2021/08/02 06:00:36;;;;;;;2.88;2.30;;;17.90;88.80;;;;;;3542203;40;20066;-67
2021/08/02 06:03:01;;;;;;;7.85;2.78;;;18.00;89.10;;;;;;3541610;40;20332;-67
2021/08/02 06:05:27;;;;;;;4.35;2.25;;;18.00;88.30;;;;;;3541461;40;20363;-69
2021/08/02 06:07:53;;;;;;;3.28;2.38;;;18.00;88.60;;;;;;3541867;40;20047;-68
2021/08/02 06:10:18;;;;;;;3.10;2.55;;;18.00;88.40;;;;;;3541104;40;20379;-69
2021/08/02 06:12:44;;;;;;;5.38;2.50;;;18.10;89.00;;;;;;3541705;40;20375;-68
2021/08/02 06:15:11;;;;;;;3.55;2.53;;;18.30;87.90;;;;;;3541545;40;20066;-68
2021/08/02 06:17:37;;;;;;;3.10;2.08;;;18.30;87.20;;;;;;3540163;40;20046;-68
2021/08/02 06:20:04;;;;;;;5.05;2.40;;;18.40;88.60;;;;;;3541721;40;20031;-68
2021/08/02 06:22:29;;;;;;;3.03;2.00;;;18.50;88.20;;;;;;3540904;40;20074;-68
2021/08/02 06:24:55;;;;;;;2.83;2.00;;;18.60;87.10;;;;;;3539965;40;20030;-69
2021/08/02 06:27:21;;;;;;;2.92;1.75;;;18.70;86.00;;;;;;3541550;40;20094;-69
2021/08/02 06:29:47;;;;;;;2.88;1.60;;;18.70;84.90;;;;;;3541181;40;20070;-67
2021/08/02 06:32:12;;;;;;;2.28;1.83;;;18.70;85.40;;;;;;3541838;40;20136;-68
2021/08/02 06:34:38;;;;;;;4.32;1.85;;;18.80;84.40;;;;;;3541154;40;20109;-69
2021/08/02 06:37:04;;;;;;;2.50;1.60;;;18.80;84.30;;;;;;3541276;40;20140;-69
2021/08/02 06:39:29;;;;;;;4.20;1.65;;;18.80;84.00;;;;;;3541112;40;20043;-69
2021/08/02 06:41:55;;;;;;;3.55;1.60;;;18.80;85.00;;;;;;3540928;40;20501;-69
2021/08/02 06:44:21;;;;;;;5.55;1.52;;;18.70;83.80;;;;;;3539121;40;20038;-69
2021/08/02 06:46:46;;;;;;;4.97;1.63;;;18.70;83.10;;;;;;3541121;40;20109;-68
2021/08/02 06:49:12;;;;;;;3.80;1.83;;;18.60;84.00;;;;;;3539985;40;20030;-68
2021/08/02 06:51:41;;;;;;;3.05;1.40;;;18.50;84.00;;;;;;3539919;40;20089;-68
2021/08/02 06:54:07;;;;;;;2.45;1.67;;;18.40;83.40;;;;;;3541108;40;20059;-68
2021/08/02 06:56:33;;;;;;;2.80;1.60;;;18.30;83.90;;;;;;3541368;40;20191;-69
2021/08/02 06:58:58;;;;;;;4.05;1.77;;;18.30;84.80;;;;;;3541419;40;20018;-68
2021/08/02 07:01:24;;;;;;;4.53;1.90;;;18.20;84.50;;;;;;3541007;40;20113;-68
2021/08/02 07:03:49;;;;;;;4.28;2.25;;;18.20;84.80;;;;;;3540753;40;20770;-68
2021/08/02 07:06:15;;;;;;;3.65;1.75;;;18.20;84.10;;;;;;3535844;40;20053;-69
2021/08/02 07:08:41;;;;;;;9.00;2.38;;;18.20;84.90;;;;;;3540881;40;20038;-70
2021/08/02 07:11:07;;;;;;;3.00;2.00;;;18.20;85.60;;;;;;3539487;40;20029;-69
2021/08/02 07:13:33;;;;;;;3.50;2.22;;;18.30;81.70;;;;;;3540458;40;20049;-70
2021/08/02 07:16:00;;;;;;;6.45;2.00;;;18.40;81.40;;;;;;3540909;40;20037;-71
2021/08/02 07:18:33;;;;;;;3.83;2.08;;;18.50;82.60;;;;;;3539391;40;20034;-69
2021/08/02 07:20:59;;;;;;;5.10;2.20;;;18.80;83.70;;;;;;3541032;40;20046;-71
2021/08/02 07:23:25;;;;;;;8.55;2.47;;;19.00;83.00;;;;;;3549172;40;20404;-71
2021/08/02 07:25:50;;;;;;;3.20;1.85;;;19.40;81.20;;;;;;3541400;40;20034;-71
2021/08/02 07:28:16;;;;;;;2.60;1.63;;;19.60;79.20;;;;;;3541815;40;20054;-70
2021/08/02 07:30:42;;;;;;;2.10;1.77;;;19.60;77.40;;;;;;3541171;40;20045;-71
2021/08/02 07:33:08;;;;;;;3.95;1.65;;;19.50;79.80;;;;;;3541757;40;20144;-71
2021/08/02 07:35:33;;;;;;;4.15;1.30;;;19.50;81.00;;;;;;3539047;40;20066;-71
2021/08/02 07:37:59;;;;;;;4.55;1.55;;;19.40;78.80;;;;;;3542009;40;20037;-70
2021/08/02 07:40:25;;;;;;;3.30;1.50;;;19.40;79.00;;;;;;3540257;40;20027;-69
2021/08/02 07:42:51;;;;;;;2.17;1.23;;;19.40;78.90;;;;;;3541284;40;20770;-72
2021/08/02 07:45:17;;;;;;;5.65;1.15;;;19.50;75.20;;;;;;3542504;40;20038;-70
2021/08/02 07:47:43;;;;;;;5.18;1.38;;;19.60;73.40;;;;;;3541715;40;20577;-70
2021/08/02 07:50:11;;;;;;;1.67;1.20;;;19.60;71.00;;;;;;3540988;40;20038;-70
2021/08/02 07:52:37;;;;;;;2.38;1.10;;;19.70;72.10;;;;;;3541428;40;20124;-68
2021/08/02 07:55:03;;;;;;;2.33;0.93;;;19.80;72.80;;;;;;3540020;40;20363;-71
2021/08/02 07:57:33;;;;;;;2.38;1.05;;;19.70;74.40;;;;;;3541654;40;20054;-71
2021/08/02 08:00:06;;;;;;;5.35;1.77;;;19.80;73.30;;;;;;3541019;40;20117;-70
2021/08/02 08:02:35;;;;;;;2.63;1.73;;;19.70;75.40;;;;;;3541665;40;20785;-71
2021/08/02 08:05:00;;;;;;;2.08;1.52;;;19.50;75.10;;;;;;3539937;40;20038;-71
2021/08/02 08:07:26;;;;;;;1.90;0.93;;;19.40;75.40;;;;;;3540957;40;20148;-71
2021/08/02 08:09:52;;;;;;;2.90;1.10;;;19.30;74.80;;;;;;3540783;40;20031;-71
2021/08/02 08:12:17;;;;;;;2.13;1.05;;;19.20;76.80;;;;;;3538920;40;20068;-70
2021/08/02 08:14:46;;;;;;;1.05;0.88;;;19.30;78.60;;;;;;3540214;40;20384;-72
2021/08/02 08:17:12;;;;;;;3.08;1.08;;;19.40;74.90;;;;;;3540766;40;20023;-70
2021/08/02 08:19:37;;;;;;;1.73;0.80;;;19.40;69.70;;;;;;3540096;40;20062;-70
2021/08/02 08:22:03;;;;;;;1.58;0.80;;;19.40;73.10;;;;;;3538334;40;20038;-70
2021/08/02 08:24:29;;;;;;;2.92;0.80;;;19.50;70.30;;;;;;3537802;40;20031;-70
2021/08/02 08:26:55;;;;;;;2.75;1.20;;;19.50;73.30;;;;;;3538854;40;20345;-70
2021/08/02 08:29:20;;;;;;;4.72;1.60;;;19.50;71.70;;;;;;3538900;40;20038;-70
2021/08/02 08:31:46;;;;;;;2.15;1.40;;;19.50;72.90;;;;;;3547233;40;20744;-70
2021/08/02 08:34:12;;;;;;;2.35;1.27;;;19.50;72.80;;;;;;3541672;40;20617;-70
2021/08/02 08:36:37;;;;;;;3.47;0.80;;;19.50;73.10;;;;;;3541499;40;20042;-70
2021/08/02 08:39:04;;;;;;;4.85;1.00;;;19.60;70.50;;;;;;3541690;40;20031;-70
2021/08/02 08:41:30;;;;;;;1.17;0.90;;;19.80;70.60;;;;;;3541222;40;20154;-70
2021/08/02 08:43:56;;;;;;;4.85;1.20;;;19.90;72.10;;;;;;3541312;40;20433;-70
2021/08/02 08:46:23;;;;;;;4.55;1.00;;;19.90;69.50;;;;;;3548119;40;20443;-70
2021/08/02 08:48:50;;;;;;;3.78;0.98;;;19.90;72.70;;;;;;3541586;40;20040;-71
2021/08/02 08:51:17;;;;;;;4.50;1.10;;;19.90;74.10;;;;;;3541023;40;20807;-69
2021/08/02 08:53:44;;;;;;;4.55;1.35;;;20.00;72.50;;;;;;3541098;40;20045;-69
2021/08/02 08:56:18;;;;;;;1.60;1.00;;;20.30;69.70;;;;;;3541459;40;20042;-74
2021/08/02 08:58:44;;;;;;;3.78;1.17;;;20.40;70.20;;;;;;3540582;40;20128;-70
2021/08/02 09:01:10;;;;;;;4.07;1.10;;;20.40;69.80;;;;;;3540236;40;20074;-75
2021/08/02 09:03:36;;;;;;;4.15;1.10;;;20.50;67.10;;;;;;3541960;40;20770;-76
2021/08/02 09:06:03;;;;;;;1.73;0.88;;;20.50;67.90;;;;;;3540827;40;20035;-75
2021/08/02 09:08:29;;;;;;;1.75;0.82;;;20.50;65.80;;;;;;3541662;40;20053;-71
2021/08/02 09:11:00;;;;;;;2.53;0.95;;;20.60;61.80;;;;;;3538290;40;20893;-71
2021/08/02 09:13:30;;;;;;;6.07;1.52;;;20.60;64.00;;;;;;3539593;40;20393;-70
2021/08/02 09:15:57;;;;;;;2.08;1.20;;;20.60;66.90;;;;;;3540975;40;20393;-72
2021/08/02 09:18:23;;;;;;;2.05;1.25;;;20.50;65.80;;;;;;3539366;40;20042;-72
2021/08/02 09:21:11;;;;;;;1.55;0.93;;;20.40;68.90;;;;;;3537922;40;20051;-76
2021/08/02 09:23:50;;;;;;;1.48;1.00;;;20.30;68.60;;;;;;3537738;40;20035;-71
2021/08/02 09:26:16;;;;;;;2.58;1.00;;;20.40;68.50;;;;;;3538834;40;20071;-73
2021/08/02 09:28:52;;;;;;;3.88;1.00;;;20.40;69.50;;;;;;3539489;40;20073;-72
2021/08/02 09:31:17;;;;;;;;;;;20.60;68.30;;;;;;3540298;40;20050;-71
2021/08/02 09:33:48;;;;;;;3.40;0.90;;;20.70;68.80;;;;;;3547606;40;19984;-73
2021/08/02 09:36:15;;;;;;;3.10;0.60;;;20.80;68.10;;;;;;3540252;40;20705;-72
2021/08/02 09:38:41;;;;;;;3.58;1.00;;;20.80;68.20;;;;;;3538925;40;20046;-72
2021/08/02 09:41:07;;;;;;;1.30;0.98;;;20.70;65.80;;;;;;3538929;40;20023;-72
2021/08/02 09:43:34;;;;;;;2.67;0.73;;;20.70;69.00;;;;;;3538362;40;20033;-72
2021/08/02 09:46:02;;;;;;;0.73;0.68;;;20.60;68.80;;;;;;3540733;40;20094;-72
2021/08/02 09:48:39;;;;;;;3.22;0.73;;;20.60;68.90;;;;;;3530324;40;20058;-72
2021/08/02 09:51:17;;;;;;;1.98;1.02;;;20.60;66.40;;;;;;3540327;40;20046;-71
2021/08/02 09:53:48;;;;;;;1.42;0.90;;;20.60;65.40;;;;;;3540249;40;20857;-72
2021/08/02 09:56:16;;;;;;;1.50;0.85;;;20.70;68.50;;;;;;3540378;40;20035;-72
2021/08/02 09:58:43;;;;;;;1.23;0.80;;;20.90;68.40;;;;;;3540348;40;20057;-72
2021/08/02 10:01:12;;;;;;;6.03;0.80;;;20.90;63.50;;;;;;3540449;40;20058;-64
2021/08/02 10:03:39;;;;;;;2.60;0.90;;;20.90;65.80;;;;;;3541808;40;20423;-64
2021/08/02 10:06:05;;;;;;;4.75;1.17;;;20.90;66.70;;;;;;3541719;40;20026;-64
2021/08/02 10:08:33;;;;;;;4.35;1.25;;;21.00;68.80;;;;;;3541152;40;20034;-64
2021/08/02 10:10:59;;;;;;;5.20;1.10;;;21.00;62.80;;;;;;3538239;40;20034;-64
2021/08/02 10:13:27;;;;;;;1.83;1.08;;;21.00;64.10;;;;;;3542022;40;20120;-64
2021/08/02 10:15:56;;;;;;;3.40;1.30;;;21.00;66.80;;;;;;3541357;40;20495;-63
2021/08/02 10:18:24;;;;;;;5.95;1.00;;;21.10;68.90;;;;;;3541705;40;20042;-65
2021/08/02 10:21:00;;;;;;;1.88;1.00;;;21.20;66.50;;;;;;3542047;40;20039;-64
2021/08/02 10:23:26;;;;;;;2.17;1.02;;;21.40;64.50;;;;;;3541399;40;20093;-64
2021/08/02 10:25:52;;;;;;;1.25;0.98;;;21.60;62.60;;;;;;3541543;40;20082;-66
2021/08/02 10:28:19;;;;;;;2.35;1.05;;;21.80;61.20;;;;;;3541640;40;20049;-65
2021/08/02 10:30:59;;;;;;;4.32;1.17;;;21.90;57.90;;;;;;3541184;40;20069;-65
2021/08/02 10:33:39;;;;;;;3.35;1.15;;;21.90;58.00;;;;;;3541736;40;20061;-65
2021/08/02 10:36:18;;;;;;;2.53;0.88;;;21.90;57.60;;;;;;3540202;40;20037;-65
2021/08/02 10:38:50;;;;;;;1.75;0.70;;;21.80;58.80;;;;;;3541472;40;20042;-65
2021/08/02 10:41:32;;;;;;;1.65;0.85;;;21.80;57.90;;;;;;3541112;40;20034;-65
2021/08/02 10:44:19;;;;;;;14.88;6.85;;;21.70;58.00;;;;;;3541518;40;20049;-65
2021/08/02 10:46:46;;;;;;;9.38;6.03;;;22.40;55.70;;;;;;3541369;40;20104;-65
2021/08/02 10:49:13;;;;;;;1.48;1.17;;;22.60;55.10;;;;;;3541591;40;20233;-65
2021/08/02 10:51:51;;;;;;;3.92;1.25;;;22.50;56.40;;;;;;3541298;40;20033;-65
2021/08/02 10:54:18;;;;;;;4.15;2.28;;;22.30;56.50;;;;;;3539939;40;20030;-64
2021/08/02 10:56:51;;;;;;;2.75;1.13;;;22.20;60.80;;;;;;3539326;40;20064;-65
2021/08/02 10:59:18;;;;;;;1.58;0.95;;;22.20;58.30;;;;;;3540008;40;20503;-65
2021/08/02 11:01:50;;;;;;;2.65;1.77;;;22.10;57.00;;;;;;3538979;40;20034;-65
2021/08/02 11:04:17;;;;;;;2.05;0.90;;;21.90;60.60;;;;;;3540584;40;20041;-65
2021/08/02 11:06:48;;;;;;;2.20;0.90;;;21.90;60.10;;;;;;3540257;40;20027;-67
2021/08/02 11:09:14;;;;;;;2.08;0.98;;;21.90;58.20;;;;;;3541524;40;20053;-66
2021/08/02 11:11:41;;;;;;;1.73;1.08;;;22.00;59.00;;;;;;3539988;40;20030;-66
2021/08/02 11:14:27;;;;;;;4.13;1.00;;;21.90;57.50;;;;;;3541890;40;20034;-66
2021/08/02 11:16:53;;;;;;;2.45;1.05;;;22.00;55.40;;;;;;3541264;40;20047;-65
2021/08/02 11:19:25;;;;;;;1.85;1.00;;;22.00;59.30;;;;;;3541789;40;20038;-66
2021/08/02 11:22:00;;;;;;;1.45;0.88;;;22.00;56.40;;;;;;3541890;40;20403;-65
2021/08/02 11:24:27;;;;;;;3.05;0.70;;;22.00;56.80;;;;;;3541312;40;20046;-66
2021/08/02 11:26:55;;;;;;;3.88;0.80;;;22.10;54.70;;;;;;3542081;40;20130;-66
2021/08/02 11:29:26;;;;;;;1.60;0.80;;;22.10;58.30;;;;;;3542174;40;20033;-66
2021/08/02 11:32:08;;;;;;;2.45;1.15;;;22.20;59.10;;;;;;3542545;40;20082;-66
2021/08/02 11:34:35;;;;;;;2.97;1.35;;;22.30;56.30;;;;;;3542572;40;20120;-66
2021/08/02 11:37:10;;;;;;;2.78;0.80;;;22.30;54.80;;;;;;3540952;40;20320;-67
2021/08/02 11:39:57;;;;;;;1.30;0.70;;;22.40;53.10;;;;;;3537387;40;20050;-67
2021/08/02 11:42:22;;;;;;;3.08;1.65;;;22.40;54.80;;;;;;3541848;40;20289;-67
2021/08/02 11:44:54;;;;;;;2.13;1.48;;;22.40;52.40;;;;;;3543157;40;20629;-68
2021/08/02 11:47:28;;;;;;;4.43;1.08;;;22.40;53.20;;;;;;3542304;40;20038;-67
2021/08/02 11:49:56;;;;;;;2.50;1.02;;;22.30;53.20;;;;;;3542839;40;20636;-67
2021/08/02 11:52:24;;;;;;;4.43;1.52;;;22.40;53.90;;;;;;3543002;40;20029;-67
2021/08/02 11:55:07;;;;;;;2.60;1.70;;;22.40;50.30;;;;;;3543011;40;20035;-67
2021/08/02 11:57:33;;;;;;;1.67;1.00;;;22.20;50.60;;;;;;3543650;40;20042;-67
2021/08/02 12:00:10;;;;;;;5.25;1.60;;;22.20;51.00;;;;;;3543468;40;20139;-68
2021/08/02 12:02:46;;;;;;;3.13;1.40;;;22.10;52.50;;;;;;3543250;40;20027;-68
2021/08/02 12:05:23;;;;;;;4.50;1.20;;;22.10;52.70;;;;;;3543424;40;20030;-68
2021/08/02 12:07:49;;;;;;;4.05;1.23;;;22.20;51.80;;;;;;3541847;40;20037;-68
2021/08/02 12:10:18;;;;;;;4.82;2.60;;;22.30;50.00;;;;;;3542277;40;20460;-68
2021/08/02 12:13:03;;;;;;;2.03;0.95;;;22.40;54.60;;;;;;3540301;40;20216;-68
2021/08/02 12:15:29;;;;;;;1.83;1.00;;;22.70;50.40;;;;;;3542094;40;20034;-68
2021/08/02 12:17:56;;;;;;;2.83;1.15;;;22.90;49.10;;;;;;3541370;40;20038;-68
2021/08/02 12:20:37;;;;;;;1.40;1.10;;;22.90;47.10;;;;;;3542340;40;20094;-68
2021/08/02 12:23:05;;;;;;;3.03;0.90;;;23.00;47.60;;;;;;3542193;40;20070;-67
2021/08/02 12:25:38;;;;;;;2.85;0.88;;;23.10;49.30;;;;;;3541743;40;20073;-68
2021/08/02 12:28:08;;;;;;;2.85;1.10;;;23.20;48.30;;;;;;3549282;40;20050;-66
2021/08/02 12:30:36;;;;;;;2.00;1.17;;;23.30;48.30;;;;;;3542062;40;20030;-67
2021/08/02 12:33:02;;;;;;;4.75;1.00;;;23.40;48.90;;;;;;3541311;40;20093;-65
2021/08/02 12:35:28;;;;;;;3.47;1.10;;;23.40;49.80;;;;;;3542998;40;20039;-66
2021/08/02 12:37:54;;;;;;;2.72;1.20;;;23.40;48.30;;;;;;3540930;40;20420;-66
2021/08/02 12:40:20;;;;;;;2.25;1.35;;;23.50;47.30;;;;;;3542900;40;20033;-66
2021/08/02 12:42:48;;;;;;;5.72;1.88;;;23.50;50.20;;;;;;3542702;40;20053;-66
2021/08/02 12:45:15;;;;;;;5.07;1.38;;;23.50;49.60;;;;;;3550748;40;20034;-66
2021/08/02 12:47:42;;;;;;;2.65;1.10;;;23.40;48.30;;;;;;3542869;40;20030;-66
2021/08/02 12:50:10;;;;;;;2.10;1.13;;;23.30;46.60;;;;;;3542600;40;20128;-66
2021/08/02 12:52:36;;;;;;;1.70;1.00;;;23.30;46.60;;;;;;3543300;40;20045;-66
2021/08/02 12:55:05;;;;;;;3.90;1.20;;;23.30;47.00;;;;;;3542413;40;20081;-66
2021/08/02 12:57:31;;;;;;;3.33;0.90;;;23.20;47.10;;;;;;3543345;40;20038;-66